createdAt,value
2023-02-19T00:00:09.278Z,10.50
2023-02-19T00:02:41.293Z,10.64
2023-02-19T00:05:09.915Z,10.38
2023-02-19T00:07:38.293Z,10.42
2023-02-19T00:10:07.644Z,10.48
2023-02-19T00:12:37.015Z,10.65
2023-02-19T00:15:05.671Z,10.32
2023-02-19T00:17:34.012Z,10.34
2023-02-19T00:20:02.589Z,10.18
2023-02-19T00:22:31.223Z,9.97
2023-02-19T00:24:59.266Z,9.93
2023-02-19T00:27:27.804Z,10.10
2023-02-19T00:29:56.295Z,9.99
2023-02-19T00:32:24.389Z,10.02
2023-02-19T00:34:52.792Z,9.98
2023-02-19T00:37:21.044Z,10.15
2023-02-19T00:39:49.807Z,10.07
2023-02-19T00:42:18.797Z,9.95
2023-02-19T00:44:48.267Z,9.97
2023-02-19T00:47:16.373Z,10.07
2023-02-19T00:49:45.067Z,9.95
2023-02-19T00:52:13.413Z,9.85
2023-02-19T00:54:41.567Z,10.19
2023-02-19T00:57:10.032Z,10.14
2023-02-19T00:59:39.050Z,9.80
2023-02-19T01:02:07.269Z,9.96
2023-02-19T01:04:35.922Z,9.89
2023-02-19T01:07:04.200Z,9.74
2023-02-19T01:09:32.538Z,9.69
2023-02-19T01:12:00.977Z,9.93
2023-02-19T01:14:29.266Z,9.58
2023-02-19T01:16:57.477Z,9.85
2023-02-19T01:19:26.060Z,10.02
2023-02-19T01:21:54.273Z,10.23
2023-02-19T01:24:22.473Z,10.20
2023-02-19T01:26:50.976Z,10.02
2023-02-19T01:29:19.078Z,9.94
2023-02-19T01:31:47.308Z,9.81
2023-02-19T01:34:15.782Z,10.07
2023-02-19T01:36:43.967Z,10.10
2023-02-19T01:39:12.277Z,9.93
2023-02-19T01:41:42.029Z,10.07
2023-02-19T01:44:18.330Z,10.02
2023-02-19T01:46:48.519Z,9.72
2023-02-19T01:49:26.527Z,9.68
2023-02-19T01:52:03.568Z,9.66
2023-02-19T01:54:36.386Z,9.92
2023-02-19T01:57:08.173Z,10.15
2023-02-19T01:59:37.196Z,9.78
2023-02-19T02:02:06.158Z,9.94
2023-02-19T02:04:35.435Z,9.66
2023-02-19T02:07:25.337Z,9.82
2023-02-19T02:10:12.820Z,9.69
2023-02-19T02:12:41.419Z,9.78
2023-02-19T02:15:10.444Z,9.58
2023-02-19T02:17:51.394Z,9.59
2023-02-19T02:20:36.064Z,9.49
2023-02-19T02:23:10.316Z,9.82
2023-02-19T02:25:39.040Z,9.64
2023-02-19T02:28:12.677Z,9.68
2023-02-19T02:30:48.811Z,9.50
2023-02-19T02:33:51.131Z,9.47
2023-02-19T02:36:22.227Z,9.55
2023-02-19T02:38:54.229Z,9.55
2023-02-19T02:41:23.652Z,9.54
2023-02-19T02:43:51.715Z,9.37
2023-02-19T02:46:30.185Z,9.48
2023-02-19T02:49:06.033Z,9.44
2023-02-19T02:51:43.546Z,9.47
2023-02-19T02:54:41.818Z,9.44
2023-02-19T02:57:14.803Z,9.42
2023-02-19T02:59:46.033Z,9.30
2023-02-19T03:02:22.896Z,9.16
2023-02-19T03:05:18.789Z,9.31
2023-02-19T03:07:47.270Z,9.08
2023-02-19T03:10:20.594Z,8.83
2023-02-19T03:13:10.485Z,8.86
2023-02-19T03:16:03.314Z,8.73
2023-02-19T03:18:55.219Z,8.64
2023-02-19T03:21:25.788Z,8.62
2023-02-19T03:24:14.481Z,8.82
2023-02-19T03:26:45.708Z,8.92
2023-02-19T03:29:24.187Z,8.83
2023-02-19T03:31:57.907Z,8.87
2023-02-19T03:34:34.646Z,8.77
2023-02-19T03:37:28.996Z,8.77
2023-02-19T03:39:59.907Z,8.59
2023-02-19T03:42:42.168Z,9.03
2023-02-19T03:45:29.321Z,9.02
2023-02-19T03:48:22.009Z,8.83
2023-02-19T03:50:56.857Z,8.70
2023-02-19T03:53:34.581Z,8.67
2023-02-19T03:56:25.938Z,8.72
2023-02-19T03:59:16.651Z,8.64
2023-02-19T04:01:49.048Z,8.53
2023-02-19T04:04:32.385Z,8.56
2023-02-19T04:07:00.685Z,8.45
2023-02-19T04:09:43.995Z,8.41
2023-02-19T04:12:14.398Z,8.52
2023-02-19T04:14:58.867Z,8.45
2023-02-19T04:17:34.508Z,8.38
2023-02-19T04:20:08.614Z,8.23
2023-02-19T04:22:40.395Z,8.27
2023-02-19T04:25:09.495Z,8.22
2023-02-19T04:27:39.329Z,8.23
2023-02-19T04:30:09.440Z,8.17
2023-02-19T04:32:38.235Z,8.09
2023-02-19T04:35:06.580Z,8.00
2023-02-19T04:37:35.687Z,7.96
2023-02-19T04:40:04.789Z,7.82
2023-02-19T04:42:32.905Z,7.68
2023-02-19T04:45:01.136Z,7.78
2023-02-19T04:47:32.664Z,7.83
2023-02-19T04:50:00.943Z,7.83
2023-02-19T04:52:29.871Z,7.87
2023-02-19T04:54:57.887Z,7.85
2023-02-19T04:57:25.990Z,7.93
2023-02-19T04:59:54.399Z,7.71
2023-02-19T05:02:22.667Z,7.87
2023-02-19T05:04:50.738Z,8.06
2023-02-19T05:07:19.228Z,8.18
2023-02-19T05:09:47.402Z,8.40
2023-02-19T05:12:15.550Z,8.67
2023-02-19T05:14:43.948Z,8.48
2023-02-19T05:17:12.182Z,8.73
2023-02-19T05:19:40.345Z,8.72
2023-02-19T05:22:11.865Z,8.57
2023-02-19T05:24:40.235Z,8.52
2023-02-19T05:27:08.549Z,8.49
2023-02-19T05:29:37.145Z,8.54
2023-02-19T05:32:05.774Z,8.46
2023-02-19T05:34:34.004Z,8.60
2023-02-19T05:37:02.424Z,8.58
2023-02-19T05:39:31.038Z,8.53
2023-02-19T05:41:59.164Z,8.82
2023-02-19T05:44:30.965Z,8.71
2023-02-19T05:46:59.073Z,8.77
2023-02-19T05:49:27.916Z,8.76
2023-02-19T05:51:56.005Z,8.73
2023-02-19T05:54:24.246Z,8.70
2023-02-19T05:56:52.764Z,8.76
2023-02-19T05:59:23.407Z,8.61
2023-02-19T06:01:53.711Z,8.58
2023-02-19T06:04:22.312Z,8.56
2023-02-19T06:06:50.907Z,8.53
2023-02-19T06:09:19.129Z,8.54
2023-02-19T06:11:48.374Z,8.52
2023-02-19T06:14:16.510Z,8.46
2023-02-19T06:16:44.565Z,8.45
2023-02-19T06:19:13.144Z,8.45
2023-02-19T06:21:41.638Z,8.48
2023-02-19T06:24:10.098Z,8.60
2023-02-19T06:26:38.550Z,8.59
2023-02-19T06:29:07.375Z,8.74
2023-02-19T06:31:35.663Z,8.95
2023-02-19T06:34:05.391Z,8.84
2023-02-19T06:36:34.004Z,8.72
2023-02-19T06:39:03.925Z,8.60
2023-02-19T06:41:32.913Z,8.60
2023-02-19T06:44:01.569Z,8.59
2023-02-19T06:46:29.844Z,8.56
2023-02-19T06:48:58.536Z,8.66
2023-02-19T06:51:28.956Z,8.67
2023-02-19T06:53:57.475Z,8.76
2023-02-19T06:56:37.852Z,8.83
2023-02-19T06:59:09.507Z,8.83
2023-02-19T07:01:39.295Z,8.79
2023-02-19T07:04:08.146Z,8.86
2023-02-19T07:06:36.677Z,8.83
2023-02-19T07:09:06.768Z,8.80
2023-02-19T07:11:37.918Z,8.80
2023-02-19T07:14:08.653Z,8.83
2023-02-19T07:16:37.575Z,8.89
2023-02-19T07:19:05.761Z,8.97
2023-02-19T07:21:37.823Z,9.05
2023-02-19T07:24:06.660Z,9.07
2023-02-19T07:26:35.423Z,9.13
2023-02-19T07:29:04.483Z,9.18
2023-02-19T07:31:33.354Z,9.12
2023-02-19T07:34:01.533Z,9.12
2023-02-19T07:36:29.857Z,9.14
2023-02-19T07:39:00.102Z,9.18
2023-02-19T07:41:28.630Z,9.36
2023-02-19T07:43:58.113Z,9.34
2023-02-19T07:46:26.603Z,9.38
2023-02-19T07:48:54.647Z,9.49
2023-02-19T07:51:23.523Z,9.68
2023-02-19T07:53:51.953Z,9.84
2023-02-19T07:56:20.841Z,9.89
2023-02-19T07:58:49.374Z,9.98
2023-02-19T08:01:41.653Z,10.10
2023-02-19T08:04:12.878Z,10.15
2023-02-19T08:06:41.786Z,10.04
2023-02-19T08:09:10.285Z,10.09
2023-02-19T08:11:57.270Z,10.25
2023-02-19T08:14:26.785Z,10.24
2023-02-19T08:16:55.715Z,10.20
2023-02-19T08:19:24.181Z,10.01
2023-02-19T08:21:53.643Z,9.84
2023-02-19T08:24:21.926Z,9.75
2023-02-19T08:26:50.318Z,9.60
2023-02-19T08:29:18.757Z,9.73
2023-02-19T08:31:47.133Z,9.56
2023-02-19T08:34:15.706Z,9.40
2023-02-19T08:36:44.288Z,9.25
2023-02-19T08:39:12.421Z,9.25
2023-02-19T08:41:40.829Z,9.47
2023-02-19T08:44:09.549Z,9.22
2023-02-19T08:46:37.906Z,9.20
2023-02-19T08:49:06.120Z,9.14
2023-02-19T08:51:34.977Z,9.07
2023-02-19T08:54:04.361Z,9.03
2023-02-19T08:56:32.595Z,8.96
2023-02-19T08:59:01.115Z,8.99
2023-02-19T09:01:29.369Z,8.93
2023-02-19T09:03:57.684Z,8.88
2023-02-19T09:06:26.401Z,8.77
2023-02-19T09:08:54.536Z,8.76
2023-02-19T09:11:22.963Z,8.75
2023-02-19T09:13:51.701Z,8.73
2023-02-19T09:16:19.890Z,8.61
2023-02-19T09:18:48.374Z,8.56
2023-02-19T09:21:17.845Z,8.53
2023-02-19T09:23:46.362Z,8.73
2023-02-19T09:26:14.696Z,8.56
2023-02-19T09:28:43.386Z,8.57
2023-02-19T09:31:15.818Z,8.49
2023-02-19T09:33:48.957Z,8.54
2023-02-19T09:36:19.031Z,8.43
2023-02-19T09:38:47.645Z,8.54
2023-02-19T09:41:23.320Z,8.59
2023-02-19T09:43:51.997Z,8.58
2023-02-19T09:46:47.990Z,8.65
2023-02-19T09:49:40.358Z,8.66
2023-02-19T09:52:37.954Z,8.76
2023-02-19T09:55:36.625Z,8.82
2023-02-19T09:58:30.139Z,8.86
2023-02-19T10:01:01.685Z,8.81
2023-02-19T10:03:39.427Z,8.89
2023-02-19T10:06:15.978Z,8.94
2023-02-19T10:08:46.243Z,9.09
2023-02-19T10:11:15.500Z,9.32
2023-02-19T10:13:53.582Z,9.47
2023-02-19T10:16:26.973Z,10.11
2023-02-19T10:18:56.706Z,10.29
2023-02-19T10:21:27.422Z,10.11
2023-02-19T10:24:00.585Z,10.07
2023-02-19T10:26:34.734Z,9.89
2023-02-19T10:29:06.199Z,9.98
2023-02-19T10:31:34.725Z,9.80
2023-02-19T10:34:03.419Z,10.19
2023-02-19T10:36:45.186Z,10.47
2023-02-19T10:39:23.031Z,10.49
2023-02-19T10:41:51.945Z,10.77
2023-02-19T10:44:29.922Z,11.38
2023-02-19T10:47:00.276Z,12.06
2023-02-19T10:49:30.160Z,12.12
2023-02-19T10:52:03.144Z,12.33
2023-02-19T10:54:36.146Z,12.25
2023-02-19T10:57:34.663Z,12.83
2023-02-19T11:00:22.876Z,12.43
2023-02-19T11:03:20.091Z,12.86
2023-02-19T11:05:57.100Z,13.54
2023-02-19T11:08:25.551Z,13.47
2023-02-19T11:10:54.319Z,13.74
2023-02-19T11:13:32.459Z,13.64
2023-02-19T11:16:01.976Z,13.25
2023-02-19T11:18:36.317Z,13.18
2023-02-19T11:21:07.205Z,13.61
2023-02-19T11:23:45.987Z,13.54
2023-02-19T11:26:20.835Z,13.76
2023-02-19T11:28:57.206Z,13.64
2023-02-19T11:31:35.419Z,13.21
2023-02-19T11:34:30.127Z,13.42
2023-02-19T11:37:08.721Z,13.68
2023-02-19T11:39:37.634Z,14.17
2023-02-19T11:42:06.018Z,14.08
2023-02-19T11:45:07.390Z,14.69
2023-02-19T11:47:54.539Z,14.30
2023-02-19T11:50:23.208Z,13.76
2023-02-19T11:53:16.854Z,13.70
2023-02-19T11:56:12.333Z,13.85
2023-02-19T11:59:02.686Z,14.08
2023-02-19T12:01:43.526Z,14.16
2023-02-19T12:04:59.748Z,13.84
2023-02-19T12:07:40.348Z,13.94
2023-02-19T12:10:28.524Z,13.78
2023-02-19T12:13:33.272Z,14.11
2023-02-19T12:16:26.170Z,14.07
2023-02-19T12:18:57.324Z,14.29
2023-02-19T12:21:39.241Z,14.30
2023-02-19T12:24:43.622Z,14.29
2023-02-19T12:27:27.193Z,14.11
2023-02-19T12:30:23.442Z,14.18
2023-02-19T12:33:28.697Z,14.26
2023-02-19T12:36:20.276Z,14.02
2023-02-19T12:39:05.282Z,13.59
2023-02-19T12:41:59.998Z,12.84
2023-02-19T12:44:56.274Z,12.45
2023-02-19T12:47:30.155Z,12.28
2023-02-19T12:50:23.753Z,12.23
2023-02-19T12:53:10.179Z,12.11
2023-02-19T12:55:43.295Z,11.96
2023-02-19T12:58:26.252Z,11.97
2023-02-19T13:00:59.111Z,11.96
2023-02-19T13:03:35.671Z,12.19
2023-02-19T13:06:18.745Z,12.38
2023-02-19T13:09:07.560Z,12.33
2023-02-19T13:11:55.090Z,12.15
2023-02-19T13:14:35.396Z,12.24
2023-02-19T13:17:31.784Z,12.41
2023-02-19T13:20:25.865Z,12.35
2023-02-19T13:23:18.552Z,11.35
2023-02-19T13:26:17.317Z,11.17
2023-02-19T13:29:10.473Z,10.88
2023-02-19T13:32:03.532Z,10.93
2023-02-19T13:34:42.323Z,10.70
2023-02-19T13:37:12.034Z,10.90
2023-02-19T13:39:51.210Z,10.80
2023-02-19T13:42:27.773Z,10.78
2023-02-19T13:44:58.794Z,10.74
2023-02-19T13:47:45.886Z,11.00
2023-02-19T13:50:23.598Z,10.81
2023-02-19T13:52:53.749Z,10.77
2023-02-19T13:55:46.764Z,10.80
2023-02-19T13:58:34.052Z,10.82
2023-02-19T14:01:04.704Z,11.01
2023-02-19T14:03:39.893Z,11.15
2023-02-19T14:06:09.892Z,11.08
2023-02-19T14:08:49.509Z,11.10
2023-02-19T14:11:18.540Z,11.17
2023-02-19T14:13:50.958Z,11.04
2023-02-19T14:16:29.534Z,11.05
2023-02-19T14:18:58.269Z,10.96
2023-02-19T14:21:36.642Z,10.94
2023-02-19T14:24:11.759Z,10.92
2023-02-19T14:26:41.499Z,10.94
2023-02-19T14:29:15.585Z,10.88
2023-02-19T14:31:45.998Z,10.91
2023-02-19T14:34:23.774Z,10.91
2023-02-19T14:37:00.729Z,10.84
2023-02-19T14:39:33.918Z,10.79
2023-02-19T14:42:06.872Z,10.62
2023-02-19T14:44:51.313Z,10.50
2023-02-19T14:47:23.178Z,10.61
2023-02-19T14:50:01.045Z,10.68
2023-02-19T14:52:41.044Z,10.55
2023-02-19T14:55:40.439Z,10.62
2023-02-19T14:58:25.816Z,10.40
2023-02-19T15:00:54.531Z,10.70
2023-02-19T15:03:44.729Z,10.47
2023-02-19T15:06:17.579Z,10.47
2023-02-19T15:08:52.739Z,10.29
2023-02-19T15:11:23.934Z,10.34
2023-02-19T15:13:59.335Z,10.34
2023-02-19T15:16:30.499Z,10.27
2023-02-19T15:19:00.297Z,10.22
2023-02-19T15:21:32.688Z,10.23
2023-02-19T15:24:04.123Z,10.17
2023-02-19T15:26:40.771Z,10.33
2023-02-19T15:29:15.888Z,10.18
2023-02-19T15:31:55.310Z,10.29
2023-02-19T15:34:26.538Z,10.02
2023-02-19T15:37:07.117Z,10.05
2023-02-19T15:39:39.985Z,10.07
2023-02-19T15:42:16.298Z,9.86
2023-02-19T15:44:54.827Z,9.98
2023-02-19T15:47:28.763Z,9.88
2023-02-19T15:50:09.603Z,9.90
2023-02-19T15:53:03.696Z,10.04
2023-02-19T15:55:41.669Z,9.95
2023-02-19T15:58:30.561Z,9.92
2023-02-19T16:01:15.714Z,9.91
2023-02-19T16:03:44.519Z,9.94
2023-02-19T16:06:17.941Z,9.89
2023-02-19T16:09:07.255Z,9.80
2023-02-19T16:11:38.884Z,9.56
2023-02-19T16:14:22.732Z,9.61
2023-02-19T16:17:18.865Z,9.82
2023-02-19T16:19:54.429Z,9.73
2023-02-19T16:22:26.606Z,9.92
2023-02-19T16:25:03.269Z,9.88
2023-02-19T16:27:35.238Z,9.48
2023-02-19T16:30:08.146Z,9.38
2023-02-19T16:32:39.336Z,9.41
2023-02-19T16:35:37.789Z,9.28
2023-02-19T16:38:16.529Z,9.21
2023-02-19T16:40:48.494Z,8.96
2023-02-19T16:43:31.506Z,9.00
2023-02-19T16:46:01.837Z,8.74
2023-02-19T16:48:30.352Z,8.64
2023-02-19T16:50:59.615Z,8.64
2023-02-19T16:53:29.476Z,8.67
2023-02-19T16:55:58.501Z,8.65
2023-02-19T16:58:27.387Z,8.57
2023-02-19T17:00:57.721Z,8.43
2023-02-19T17:03:26.209Z,8.38
2023-02-19T17:05:56.056Z,8.38
2023-02-19T17:08:37.595Z,8.38
2023-02-19T17:11:13.256Z,8.46
2023-02-19T17:13:42.965Z,8.18
2023-02-19T17:16:20.429Z,8.57
2023-02-19T17:18:49.899Z,8.31
2023-02-19T17:21:25.468Z,8.32
2023-02-19T17:23:55.943Z,8.25
2023-02-19T17:26:30.961Z,8.09
2023-02-19T17:29:00.732Z,8.17
2023-02-19T17:31:29.313Z,8.32
2023-02-19T17:33:58.937Z,8.18
2023-02-19T17:36:30.967Z,8.26
2023-02-19T17:39:01.768Z,8.36
2023-02-19T17:41:30.604Z,8.39
2023-02-19T17:43:59.178Z,8.45
2023-02-19T17:46:27.835Z,8.45
2023-02-19T17:48:56.515Z,8.38
2023-02-19T17:51:24.949Z,8.30
2023-02-19T17:53:53.382Z,8.24
2023-02-19T17:56:25.706Z,7.98
2023-02-19T17:58:55.891Z,8.17
2023-02-19T18:01:25.132Z,8.13
2023-02-19T18:03:54.110Z,8.15
2023-02-19T18:06:22.432Z,8.28
2023-02-19T18:08:52.644Z,8.09
2023-02-19T18:11:23.144Z,8.12
2023-02-19T18:13:52.960Z,8.07
2023-02-19T18:16:22.398Z,8.08
2023-02-19T18:18:50.908Z,8.03
2023-02-19T18:21:23.810Z,7.95
2023-02-19T18:23:52.679Z,8.00
2023-02-19T18:26:21.595Z,7.99
2023-02-19T18:28:50.240Z,7.93
2023-02-19T18:31:19.444Z,7.93
2023-02-19T18:33:48.300Z,7.99
2023-02-19T18:36:16.638Z,7.89
2023-02-19T18:38:46.805Z,7.93
2023-02-19T18:41:20.297Z,7.74
2023-02-19T18:43:50.236Z,7.55
2023-02-19T18:46:21.491Z,7.87
2023-02-19T18:48:50.301Z,7.61
2023-02-19T18:51:21.210Z,7.43
2023-02-19T18:53:50.719Z,7.69
2023-02-19T18:56:19.236Z,7.40
2023-02-19T18:58:50.243Z,7.48
2023-02-19T19:01:19.342Z,7.73
2023-02-19T19:03:49.446Z,7.78
2023-02-19T19:06:17.476Z,7.58
2023-02-19T19:08:46.485Z,7.38
2023-02-19T19:11:15.109Z,7.31
2023-02-19T19:13:45.985Z,7.20
2023-02-19T19:16:14.775Z,7.49
2023-02-19T19:18:43.460Z,7.53
2023-02-19T19:21:15.236Z,7.45
2023-02-19T19:23:44.535Z,7.44
2023-02-19T19:26:14.083Z,7.22
2023-02-19T19:28:46.736Z,7.43
2023-02-19T19:31:17.302Z,7.52
2023-02-19T19:33:47.969Z,7.35
2023-02-19T19:36:22.491Z,7.43
2023-02-19T19:38:52.244Z,7.66
2023-02-19T19:41:21.653Z,7.67
2023-02-19T19:43:50.304Z,7.42
2023-02-19T19:46:20.491Z,7.44
2023-02-19T19:48:50.845Z,7.73
2023-02-19T19:51:20.417Z,7.67
2023-02-19T19:53:50.153Z,7.54
2023-02-19T19:56:18.303Z,7.71
2023-02-19T19:58:48.016Z,7.71
2023-02-19T20:01:21.364Z,7.50
2023-02-19T20:03:53.595Z,7.54
2023-02-19T20:06:27.412Z,7.45
2023-02-19T20:08:56.576Z,7.43
2023-02-19T20:11:25.634Z,7.35
2023-02-19T20:13:54.259Z,7.30
2023-02-19T20:16:29.269Z,7.26
2023-02-19T20:18:58.246Z,7.10
2023-02-19T20:21:27.229Z,7.09
2023-02-19T20:23:55.484Z,6.85
2023-02-19T20:26:26.225Z,6.78
2023-02-19T20:28:56.829Z,6.76
2023-02-19T20:31:25.482Z,6.70
2023-02-19T20:33:57.646Z,6.65
2023-02-19T20:36:28.540Z,6.70
2023-02-19T20:38:57.008Z,6.57
2023-02-19T20:41:25.787Z,6.55
2023-02-19T20:43:54.023Z,6.48
2023-02-19T20:46:22.902Z,6.55
2023-02-19T20:48:52.061Z,6.37
2023-02-19T20:51:20.347Z,6.42
2023-02-19T20:53:48.697Z,6.42
2023-02-19T20:56:17.564Z,6.10
2023-02-19T20:58:45.690Z,6.17
2023-02-19T21:01:14.515Z,6.23
2023-02-19T21:03:43.204Z,6.06
2023-02-19T21:06:11.822Z,6.03
2023-02-19T21:08:40.548Z,6.00
2023-02-19T21:11:09.713Z,5.94
2023-02-19T21:13:38.224Z,5.85
2023-02-19T21:16:06.663Z,5.86
2023-02-19T21:18:35.459Z,5.85
2023-02-19T21:21:03.990Z,5.82
2023-02-19T21:23:32.396Z,5.67
2023-02-19T21:26:04.819Z,5.73
2023-02-19T21:28:33.023Z,5.67
2023-02-19T21:31:01.649Z,5.44
2023-02-19T21:33:29.861Z,5.60
2023-02-19T21:35:58.047Z,5.52
2023-02-19T21:38:26.680Z,5.42
2023-02-19T21:40:55.203Z,5.18
2023-02-19T21:43:23.356Z,5.16
2023-02-19T21:45:52.282Z,5.16
2023-02-19T21:48:20.985Z,5.19
2023-02-19T21:50:49.413Z,5.00
2023-02-19T21:53:17.847Z,4.76
2023-02-19T21:55:58.029Z,4.80
2023-02-19T21:58:27.224Z,4.88
2023-02-19T22:00:58.233Z,4.70
2023-02-19T22:03:26.969Z,4.73
2023-02-19T22:05:55.476Z,4.82
2023-02-19T22:08:23.714Z,4.76
2023-02-19T22:10:52.011Z,4.84
2023-02-19T22:13:20.059Z,4.66
2023-02-19T22:15:48.217Z,4.76
2023-02-19T22:18:16.683Z,4.97
2023-02-19T22:20:44.934Z,4.86
2023-02-19T22:23:13.207Z,4.75
2023-02-19T22:25:41.741Z,4.86
2023-02-19T22:28:10.199Z,4.69
2023-02-19T22:30:38.423Z,4.61
2023-02-19T22:33:07.110Z,4.58
2023-02-19T22:35:37.915Z,4.97
2023-02-19T22:38:06.434Z,4.83
2023-02-19T22:40:34.674Z,4.93
2023-02-19T22:43:02.783Z,4.66
2023-02-19T22:45:31.901Z,4.66
2023-02-19T22:48:00.176Z,4.25
2023-02-19T22:50:28.458Z,4.28
2023-02-19T22:52:57.278Z,4.29
2023-02-19T22:55:25.565Z,4.20
2023-02-19T22:57:55.340Z,4.10
2023-02-19T23:00:25.457Z,4.21
2023-02-19T23:02:53.566Z,4.40
2023-02-19T23:05:24.398Z,4.34
2023-02-19T23:07:52.917Z,4.13
2023-02-19T23:10:20.965Z,4.08
2023-02-19T23:12:48.966Z,4.19
2023-02-19T23:15:17.585Z,4.37
2023-02-19T23:17:45.898Z,4.53
2023-02-19T23:20:14.075Z,4.24
2023-02-19T23:22:43.628Z,4.49
2023-02-19T23:25:11.776Z,4.49
2023-02-19T23:27:39.893Z,4.22
2023-02-19T23:30:09.890Z,4.08
2023-02-19T23:32:38.106Z,4.06
2023-02-19T23:35:06.985Z,4.06
2023-02-19T23:37:35.326Z,3.87
2023-02-19T23:40:06.727Z,4.31
2023-02-19T23:42:35.587Z,4.12
2023-02-19T23:45:04.741Z,4.19
2023-02-19T23:47:32.948Z,4.14
2023-02-19T23:50:04.736Z,4.02
2023-02-19T23:52:33.477Z,3.83
2023-02-19T23:55:02.313Z,3.78
2023-02-19T23:57:30.468Z,3.92
2023-02-19T23:59:59.394Z,3.82
